createdAt,value
2023-04-26T00:01:05.270Z,12.87
2023-04-26T00:03:33.197Z,13.10
2023-04-26T00:06:08.856Z,12.60
2023-04-26T00:08:36.681Z,12.50
2023-04-26T00:11:03.846Z,14.17
2023-04-26T00:13:31.003Z,12.93
2023-04-26T00:15:58.116Z,13.20
2023-04-26T00:18:25.252Z,13.20
2023-04-26T00:20:52.409Z,12.77
2023-04-26T00:23:19.556Z,13.37
2023-04-26T00:25:46.677Z,13.23
2023-04-26T00:28:13.757Z,12.23
2023-04-26T00:30:47.679Z,12.43
2023-04-26T00:33:15.270Z,13.40
2023-04-26T00:35:42.708Z,12.40
2023-04-26T00:38:09.765Z,12.50
2023-04-26T00:40:36.970Z,12.63
2023-04-26T00:43:04.193Z,11.60
2023-04-26T00:45:31.942Z,11.50
2023-04-26T00:48:03.657Z,11.63
2023-04-26T00:50:31.807Z,12.27
2023-04-26T00:53:00.280Z,11.37
2023-04-26T00:55:27.672Z,11.50
2023-04-26T00:57:55.518Z,11.10
2023-04-26T01:00:23.273Z,11.47
2023-04-26T01:02:51.467Z,10.80
2023-04-26T01:05:18.803Z,11.23
2023-04-26T01:07:47.033Z,11.60
2023-04-26T01:10:14.226Z,11.53
2023-04-26T01:12:44.116Z,11.07
2023-04-26T01:15:12.190Z,11.03
2023-04-26T01:17:41.818Z,10.60
2023-04-26T01:20:10.584Z,10.90
2023-04-26T01:22:37.681Z,11.43
2023-04-26T01:25:07.947Z,11.07
2023-04-26T01:27:36.327Z,11.70
2023-04-26T01:30:04.021Z,11.60
2023-04-26T01:32:31.339Z,11.43
2023-04-26T01:34:59.637Z,11.80
2023-04-26T01:37:26.760Z,11.57
2023-04-26T01:39:54.078Z,10.93
2023-04-26T01:42:21.595Z,10.83
2023-04-26T01:44:48.773Z,11.30
2023-04-26T01:47:15.885Z,12.27
2023-04-26T01:49:43.093Z,11.03
2023-04-26T01:52:10.252Z,12.13
2023-04-26T01:54:37.354Z,11.77
2023-04-26T01:57:04.790Z,10.80
2023-04-26T01:59:31.955Z,11.33
2023-04-26T02:01:59.206Z,10.87
2023-04-26T02:04:28.380Z,9.97
2023-04-26T02:06:55.550Z,10.57
2023-04-26T02:09:22.691Z,10.23
2023-04-26T02:11:49.855Z,10.33
2023-04-26T02:14:17.226Z,10.73
2023-04-26T02:16:44.983Z,9.40
2023-04-26T02:19:12.719Z,11.43
2023-04-26T02:21:57.995Z,10.90
2023-04-26T02:24:26.028Z,12.50
2023-04-26T02:26:54.885Z,11.50
2023-04-26T02:29:29.759Z,10.60
2023-04-26T02:32:09.281Z,11.83
2023-04-26T02:34:36.718Z,10.57
2023-04-26T02:37:04.377Z,10.87
2023-04-26T02:39:31.753Z,11.00
2023-04-26T02:41:59.636Z,10.67
2023-04-26T02:44:30.934Z,10.10
2023-04-26T02:46:58.608Z,10.50
2023-04-26T02:49:26.079Z,10.27
2023-04-26T02:51:53.182Z,10.37
2023-04-26T02:54:20.421Z,10.90
2023-04-26T02:56:47.561Z,9.30
2023-04-26T02:59:14.710Z,10.80
2023-04-26T03:01:41.918Z,9.87
2023-04-26T03:04:09.522Z,8.67
2023-04-26T03:06:36.892Z,10.43
2023-04-26T03:09:05.855Z,9.20
2023-04-26T03:11:33.129Z,9.27
2023-04-26T03:14:00.349Z,11.70
2023-04-26T03:16:28.546Z,9.30
2023-04-26T03:18:55.795Z,9.50
2023-04-26T03:21:22.952Z,9.10
2023-04-26T03:23:50.106Z,10.57
2023-04-26T03:26:17.197Z,9.17
2023-04-26T03:28:44.255Z,10.17
2023-04-26T03:31:11.804Z,8.70
2023-04-26T03:33:38.923Z,8.90
2023-04-26T03:36:06.916Z,9.40
2023-04-26T03:38:34.068Z,9.57
2023-04-26T03:41:01.619Z,10.70
2023-04-26T03:43:28.689Z,8.33
2023-04-26T03:45:55.961Z,8.93
2023-04-26T03:48:23.220Z,9.07
2023-04-26T03:50:50.454Z,8.47
2023-04-26T03:53:17.893Z,9.13
2023-04-26T03:55:47.761Z,8.33
2023-04-26T03:58:15.149Z,8.83
2023-04-26T04:00:43.649Z,8.33
2023-04-26T04:03:11.123Z,10.27
2023-04-26T04:05:38.745Z,10.13
2023-04-26T04:08:06.181Z,8.73
2023-04-26T04:10:33.453Z,10.20
2023-04-26T04:13:00.616Z,8.60
2023-04-26T04:15:27.763Z,11.13
2023-04-26T04:17:54.942Z,9.97
2023-04-26T04:20:22.825Z,10.00
2023-04-26T04:22:50.083Z,9.90
2023-04-26T04:25:17.260Z,10.07
2023-04-26T04:27:45.325Z,11.27
2023-04-26T04:30:12.659Z,9.97
2023-04-26T04:32:46.986Z,10.67
2023-04-26T04:35:14.649Z,10.30
2023-04-26T04:37:45.637Z,10.40
2023-04-26T04:40:13.579Z,10.67
2023-04-26T04:42:40.929Z,11.23
2023-04-26T04:45:08.698Z,10.47
2023-04-26T04:47:37.914Z,10.67
2023-04-26T04:50:06.809Z,10.20
2023-04-26T04:52:34.367Z,10.60
2023-04-26T04:55:01.814Z,11.03
2023-04-26T04:57:28.974Z,9.70
2023-04-26T04:59:56.136Z,10.13
2023-04-26T05:02:23.313Z,9.37
2023-04-26T05:04:50.746Z,9.73
2023-04-26T05:07:18.678Z,9.83
2023-04-26T05:09:46.036Z,9.60
2023-04-26T05:12:13.335Z,9.60
2023-04-26T05:14:41.115Z,9.87
2023-04-26T05:17:08.345Z,9.60
2023-04-26T05:19:35.479Z,10.00
2023-04-26T05:22:02.879Z,10.00
2023-04-26T05:24:31.759Z,9.90
2023-04-26T05:27:01.400Z,10.47
2023-04-26T05:29:31.474Z,9.67
2023-04-26T05:31:58.713Z,10.33
2023-04-26T05:34:25.926Z,9.57
2023-04-26T05:36:53.151Z,9.67
2023-04-26T05:39:21.378Z,10.40
2023-04-26T05:41:48.586Z,10.60
2023-04-26T05:44:16.738Z,11.20
2023-04-26T05:46:43.900Z,10.83
2023-04-26T05:49:11.299Z,11.43
2023-04-26T05:51:38.440Z,11.80
2023-04-26T05:54:05.795Z,10.53
2023-04-26T05:56:32.919Z,11.27
2023-04-26T05:59:00.171Z,11.23
2023-04-26T06:01:27.930Z,10.83
2023-04-26T06:03:58.083Z,10.17
2023-04-26T06:06:27.784Z,10.23
2023-04-26T06:08:55.102Z,9.37
2023-04-26T06:11:22.462Z,9.80
2023-04-26T06:13:49.683Z,9.23
2023-04-26T06:16:21.561Z,7.87
2023-04-26T06:18:48.752Z,7.33
2023-04-26T06:21:15.854Z,6.03
2023-04-26T06:23:43.002Z,6.53
2023-04-26T06:26:10.135Z,6.33
2023-04-26T06:28:37.310Z,6.03
2023-04-26T06:31:04.535Z,5.37
2023-04-26T06:33:32.195Z,4.50
2023-04-26T06:35:59.586Z,4.57
2023-04-26T06:38:26.867Z,4.10
2023-04-26T06:40:54.028Z,3.10
2023-04-26T06:43:21.237Z,2.70
2023-04-26T06:45:48.725Z,2.10
2023-04-26T06:48:15.853Z,2.03
2023-04-26T06:50:43.030Z,1.90
2023-04-26T06:53:10.160Z,1.93
2023-04-26T06:55:37.334Z,1.90
2023-04-26T06:58:04.504Z,1.73
2023-04-26T07:00:31.800Z,2.00
2023-04-26T07:02:59.214Z,1.70
2023-04-26T07:05:26.934Z,1.70
2023-04-26T07:07:54.258Z,1.37
2023-04-26T07:10:21.614Z,1.27
2023-04-26T07:12:48.841Z,1.50
2023-04-26T07:15:16.933Z,1.55
2023-04-26T07:17:45.285Z,1.15
2023-04-26T07:20:13.350Z,1.00
2023-04-26T07:22:40.468Z,1.00
2023-04-26T07:25:07.976Z,0.90
2023-04-26T07:27:35.116Z,0.82
2023-04-26T07:30:02.347Z,0.65
2023-04-26T07:32:29.809Z,0.60
2023-04-26T07:34:57.366Z,0.52
2023-04-26T07:37:24.599Z,0.90
2023-04-26T07:39:51.753Z,0.82
2023-04-26T07:42:18.888Z,0.73
2023-04-26T07:44:48.619Z,0.77
2023-04-26T07:47:15.919Z,0.60
2023-04-26T07:49:43.060Z,0.70
2023-04-26T07:52:10.735Z,0.70
2023-04-26T07:54:38.670Z,0.70
2023-04-26T07:57:05.761Z,0.70
2023-04-26T07:59:32.870Z,0.63
2023-04-26T08:02:00.069Z,0.70
2023-04-26T08:04:34.772Z,0.70
2023-04-26T08:07:02.384Z,0.50
2023-04-26T08:09:30.943Z,0.40
2023-04-26T08:11:58.324Z,0.50
2023-04-26T08:14:28.875Z,0.50
2023-04-26T08:16:56.351Z,0.50
2023-04-26T08:19:23.580Z,0.40
2023-04-26T08:21:50.965Z,0.30
2023-04-26T08:24:18.049Z,0.30
2023-04-26T08:26:45.467Z,0.30
2023-04-26T08:29:12.878Z,0.30
2023-04-26T08:31:40.113Z,0.30
2023-04-26T08:34:11.237Z,0.40
2023-04-26T08:36:38.780Z,1.40
2023-04-26T08:39:07.081Z,0.37
2023-04-26T08:41:42.615Z,0.30
2023-04-26T08:44:10.136Z,0.20
2023-04-26T08:47:00.540Z,0.50
2023-04-26T08:49:39.539Z,0.40
2023-04-26T08:52:10.889Z,0.70
2023-04-26T08:54:39.293Z,0.40
2023-04-26T08:57:10.124Z,0.50
2023-04-26T08:59:38.308Z,0.40
2023-04-26T09:02:07.443Z,0.50
2023-04-26T09:04:35.383Z,0.40
2023-04-26T09:07:04.816Z,0.30
2023-04-26T09:09:38.116Z,0.40
2023-04-26T09:12:05.531Z,0.30
2023-04-26T09:14:32.831Z,0.30
2023-04-26T09:17:02.214Z,0.27
2023-04-26T09:19:42.687Z,0.30
2023-04-26T09:22:10.239Z,0.30
2023-04-26T09:24:52.324Z,0.20
2023-04-26T09:27:20.236Z,0.40
2023-04-26T09:30:11.668Z,0.37
2023-04-26T09:32:52.524Z,0.40
2023-04-26T09:35:27.430Z,0.40
2023-04-26T09:38:18.053Z,0.20
2023-04-26T09:40:50.108Z,0.30
2023-04-26T09:43:22.657Z,0.20
2023-04-26T09:45:55.846Z,0.30
2023-04-26T09:48:26.376Z,0.20
2023-04-26T09:50:55.665Z,0.30
2023-04-26T09:53:29.536Z,0.23
2023-04-26T09:55:58.362Z,0.20
2023-04-26T09:58:25.896Z,0.20
2023-04-26T10:00:54.625Z,0.30
2023-04-26T10:03:23.468Z,0.30
2023-04-26T10:05:50.882Z,0.50
2023-04-26T10:08:18.462Z,0.80
2023-04-26T10:10:46.121Z,0.70
2023-04-26T10:13:15.455Z,0.50
2023-04-26T10:15:42.989Z,0.40
2023-04-26T10:18:10.186Z,0.37
2023-04-26T10:20:42.853Z,0.27
2023-04-26T10:23:21.658Z,0.20
2023-04-26T10:25:49.630Z,0.20
2023-04-26T10:28:17.548Z,0.28
2023-04-26T10:30:59.485Z,0.20
2023-04-26T10:33:27.329Z,0.50
2023-04-26T10:36:04.978Z,0.20
2023-04-26T10:38:33.086Z,0.33
2023-04-26T10:41:36.158Z,0.80
2023-04-26T10:44:42.237Z,0.30
2023-04-26T10:47:26.927Z,0.20
2023-04-26T10:50:09.010Z,0.10
2023-04-26T10:52:38.614Z,0.20
2023-04-26T10:55:06.898Z,0.20
2023-04-26T10:57:53.085Z,0.20
2023-04-26T11:00:31.754Z,0.30
2023-04-26T11:03:04.009Z,0.40
2023-04-26T11:05:39.104Z,0.30
2023-04-26T11:08:16.715Z,0.20
2023-04-26T11:10:46.303Z,0.20
2023-04-26T11:13:13.492Z,0.27
2023-04-26T11:15:40.802Z,0.20
2023-04-26T11:18:08.301Z,0.20
2023-04-26T11:20:35.721Z,0.20
2023-04-26T11:23:08.887Z,0.40
2023-04-26T11:25:39.274Z,0.20
2023-04-26T11:28:07.109Z,0.20
2023-04-26T11:30:34.510Z,0.20
2023-04-26T11:33:05.143Z,0.20
2023-04-26T11:35:40.577Z,0.20
2023-04-26T11:38:07.958Z,0.20
2023-04-26T11:40:37.449Z,0.30
2023-04-26T11:43:05.773Z,0.20
2023-04-26T11:45:35.155Z,0.23
2023-04-26T11:48:08.328Z,0.30
2023-04-26T11:50:38.375Z,0.30
2023-04-26T11:53:08.882Z,0.20
2023-04-26T11:55:36.388Z,0.20
2023-04-26T11:58:12.240Z,0.20
2023-04-26T12:00:57.101Z,0.10
2023-04-26T12:03:25.393Z,0.30
2023-04-26T12:05:58.719Z,0.30
2023-04-26T12:08:27.492Z,0.20
2023-04-26T12:11:02.610Z,0.30
2023-04-26T12:13:30.725Z,0.30
2023-04-26T12:15:57.935Z,0.23
2023-04-26T12:18:32.912Z,0.30
2023-04-26T12:21:00.612Z,0.40
2023-04-26T12:23:28.220Z,0.20
2023-04-26T12:26:02.187Z,0.30
2023-04-26T12:28:29.302Z,0.30
2023-04-26T12:30:56.740Z,0.20
2023-04-26T12:33:25.412Z,0.20
2023-04-26T12:35:52.574Z,0.30
2023-04-26T12:38:19.991Z,0.30
2023-04-26T12:40:47.258Z,0.20
2023-04-26T12:43:15.975Z,0.20
2023-04-26T12:45:43.173Z,0.30
2023-04-26T12:48:10.667Z,0.30
2023-04-26T12:50:37.768Z,0.30
2023-04-26T12:53:05.019Z,0.30
2023-04-26T12:55:34.781Z,0.30
2023-04-26T12:58:01.891Z,0.30
2023-04-26T13:00:29.146Z,0.20
2023-04-26T13:02:56.450Z,0.20
2023-04-26T13:05:26.862Z,0.30
2023-04-26T13:07:54.577Z,0.40
2023-04-26T13:10:21.882Z,0.37
2023-04-26T13:12:48.977Z,0.40
2023-04-26T13:15:17.794Z,0.30
2023-04-26T13:17:45.780Z,0.20
2023-04-26T13:20:13.538Z,0.30
2023-04-26T13:22:42.636Z,0.30
2023-04-26T13:25:10.882Z,0.40
2023-04-26T13:27:37.984Z,0.50
2023-04-26T13:30:05.749Z,0.30
2023-04-26T13:32:32.998Z,0.30
2023-04-26T13:35:00.135Z,0.33
2023-04-26T13:37:27.315Z,0.40
2023-04-26T13:39:54.586Z,0.30
2023-04-26T13:42:22.097Z,0.50
2023-04-26T13:44:49.835Z,0.33
2023-04-26T13:47:17.703Z,0.40
2023-04-26T13:49:45.049Z,0.40
2023-04-26T13:52:12.482Z,0.50
2023-04-26T13:54:42.815Z,0.50
2023-04-26T13:57:09.960Z,0.40
2023-04-26T13:59:37.155Z,0.47
2023-04-26T14:02:04.329Z,0.47
2023-04-26T14:04:31.635Z,0.40
2023-04-26T14:07:01.840Z,0.40
2023-04-26T14:09:28.943Z,0.40
2023-04-26T14:12:07.137Z,0.40
2023-04-26T14:14:36.255Z,0.47
2023-04-26T14:17:03.699Z,0.50
2023-04-26T14:19:31.500Z,0.80
2023-04-26T14:21:58.839Z,0.60
2023-04-26T14:24:26.033Z,0.80
2023-04-26T14:26:53.173Z,0.90
2023-04-26T14:29:20.374Z,0.50
2023-04-26T14:31:47.658Z,0.40
2023-04-26T14:34:14.919Z,0.40
2023-04-26T14:36:42.050Z,0.30
2023-04-26T14:39:09.800Z,0.50
2023-04-26T14:41:37.508Z,0.60
2023-04-26T14:44:04.703Z,0.50
2023-04-26T14:46:31.877Z,0.60
2023-04-26T14:48:59.074Z,0.70
2023-04-26T14:51:27.469Z,0.70
2023-04-26T14:53:54.615Z,0.50
2023-04-26T14:56:22.122Z,0.60
2023-04-26T14:58:49.343Z,0.47
2023-04-26T15:01:16.576Z,0.50
2023-04-26T15:03:44.093Z,0.50
2023-04-26T15:06:11.298Z,0.50
2023-04-26T15:08:38.426Z,0.57
2023-04-26T15:11:05.805Z,0.50
2023-04-26T15:13:35.996Z,0.57
2023-04-26T15:16:07.572Z,0.67
2023-04-26T15:18:35.258Z,0.70
2023-04-26T15:21:02.459Z,0.70
2023-04-26T15:23:29.650Z,0.50
2023-04-26T15:26:01.273Z,0.70
2023-04-26T15:28:28.573Z,0.60
2023-04-26T15:31:03.291Z,0.60
2023-04-26T15:33:30.741Z,0.40
2023-04-26T15:35:57.827Z,0.60
2023-04-26T15:38:25.041Z,0.70
2023-04-26T15:40:52.241Z,0.60
2023-04-26T15:43:20.077Z,0.50
2023-04-26T15:45:49.100Z,0.50
2023-04-26T15:48:16.297Z,0.70
2023-04-26T15:50:43.547Z,0.60
2023-04-26T15:53:11.134Z,0.70
2023-04-26T15:55:38.426Z,0.60
2023-04-26T15:58:05.583Z,0.53
2023-04-26T16:00:34.033Z,0.50
2023-04-26T16:03:02.199Z,0.60
2023-04-26T16:05:29.457Z,0.60
2023-04-26T16:07:59.818Z,0.77
2023-04-26T16:10:27.420Z,0.70
2023-04-26T16:12:54.763Z,0.50
2023-04-26T16:15:22.019Z,0.60
2023-04-26T16:17:49.210Z,0.60
2023-04-26T16:20:16.509Z,0.70
2023-04-26T16:22:46.410Z,0.60
2023-04-26T16:25:13.712Z,0.80
2023-04-26T16:27:41.136Z,0.60
2023-04-26T16:30:09.560Z,0.60
2023-04-26T16:32:36.681Z,0.60
2023-04-26T16:35:04.288Z,0.50
2023-04-26T16:37:31.364Z,0.47
2023-04-26T16:39:58.490Z,0.60
2023-04-26T16:42:26.427Z,0.40
2023-04-26T16:44:55.198Z,0.60
2023-04-26T16:47:22.276Z,0.50
2023-04-26T16:49:49.374Z,0.50
2023-04-26T16:52:16.466Z,0.50
2023-04-26T16:54:43.672Z,0.47
2023-04-26T16:57:11.310Z,0.50
2023-04-26T16:59:38.368Z,0.50
2023-04-26T17:02:05.536Z,0.50
2023-04-26T17:04:33.829Z,0.60
2023-04-26T17:07:01.429Z,0.40
2023-04-26T17:09:28.594Z,0.40
2023-04-26T17:11:55.688Z,0.50
2023-04-26T17:14:26.515Z,0.40
2023-04-26T17:16:54.832Z,0.40
2023-04-26T17:19:22.574Z,0.50
2023-04-26T17:21:49.980Z,0.47
2023-04-26T17:24:18.020Z,0.40
2023-04-26T17:26:45.992Z,0.30
2023-04-26T17:29:13.148Z,0.30
2023-04-26T17:31:40.869Z,0.50
2023-04-26T17:34:11.315Z,0.30
2023-04-26T17:36:41.453Z,0.40
2023-04-26T17:39:10.163Z,0.40
2023-04-26T17:41:38.429Z,0.40
2023-04-26T17:44:05.635Z,0.50
2023-04-26T17:46:32.704Z,0.40
2023-04-26T17:49:00.193Z,0.33
2023-04-26T17:51:27.933Z,0.30
2023-04-26T17:53:54.996Z,0.30
2023-04-26T17:56:22.057Z,0.40
2023-04-26T17:58:49.218Z,0.33
2023-04-26T18:01:16.444Z,0.30
2023-04-26T18:03:44.035Z,0.37
2023-04-26T18:06:11.329Z,0.30
2023-04-26T18:08:38.381Z,0.40
2023-04-26T18:11:05.488Z,0.30
2023-04-26T18:13:32.738Z,0.80
2023-04-26T18:15:59.871Z,0.30
2023-04-26T18:18:27.986Z,0.20
2023-04-26T18:20:55.440Z,0.30
2023-04-26T18:23:22.592Z,0.20
2023-04-26T18:25:50.675Z,0.30
2023-04-26T18:28:17.928Z,0.20
2023-04-26T18:30:45.029Z,0.30
2023-04-26T18:33:12.297Z,0.27
2023-04-26T18:35:39.454Z,0.30
2023-04-26T18:38:07.104Z,0.40
2023-04-26T18:40:34.248Z,0.30
2023-04-26T18:43:01.938Z,0.30
2023-04-26T18:45:29.001Z,0.30
2023-04-26T18:47:59.305Z,0.37
2023-04-26T18:50:27.103Z,0.23
2023-04-26T18:52:55.500Z,0.30
2023-04-26T18:55:23.310Z,0.40
2023-04-26T18:57:51.787Z,0.23
2023-04-26T19:00:19.333Z,0.20
2023-04-26T19:02:48.089Z,0.30
2023-04-26T19:05:15.385Z,0.30
2023-04-26T19:07:43.042Z,0.20
2023-04-26T19:10:11.015Z,0.40
2023-04-26T19:12:38.488Z,0.60
2023-04-26T19:15:06.678Z,0.50
2023-04-26T19:17:34.454Z,0.50
2023-04-26T19:20:10.299Z,0.80
2023-04-26T19:22:37.491Z,0.80
2023-04-26T19:25:07.765Z,0.97
2023-04-26T19:27:34.938Z,0.90
2023-04-26T19:30:02.078Z,0.80
2023-04-26T19:32:29.212Z,1.00
2023-04-26T19:34:56.547Z,1.00
2023-04-26T19:37:23.756Z,1.10
2023-04-26T19:39:51.126Z,1.10
2023-04-26T19:42:18.225Z,1.23
2023-04-26T19:44:45.407Z,1.00
2023-04-26T19:47:12.684Z,1.07
2023-04-26T19:49:39.868Z,1.17
2023-04-26T19:52:06.966Z,1.07
2023-04-26T19:54:34.047Z,0.90
2023-04-26T19:57:03.438Z,0.90
2023-04-26T19:59:30.599Z,0.80
2023-04-26T20:01:57.835Z,0.80
2023-04-26T20:04:25.178Z,0.90
2023-04-26T20:06:52.648Z,0.70
2023-04-26T20:09:23.121Z,0.60
2023-04-26T20:11:50.344Z,0.50
2023-04-26T20:14:18.076Z,0.50
2023-04-26T20:16:45.516Z,0.60
2023-04-26T20:19:12.965Z,0.43
2023-04-26T20:21:40.139Z,0.50
2023-04-26T20:24:07.804Z,0.43
2023-04-26T20:26:35.051Z,0.40
2023-04-26T20:29:02.165Z,0.50
2023-04-26T20:31:29.365Z,0.40
2023-04-26T20:33:57.092Z,0.43
2023-04-26T20:36:26.209Z,0.40
2023-04-26T20:38:53.291Z,0.40
2023-04-26T20:41:21.122Z,0.50
2023-04-26T20:43:48.166Z,0.50
2023-04-26T20:46:15.432Z,0.40
2023-04-26T20:48:42.505Z,0.50
2023-04-26T20:51:09.663Z,0.40
2023-04-26T20:53:36.859Z,0.70
2023-04-26T20:56:03.974Z,0.63
2023-04-26T20:58:31.164Z,0.50
2023-04-26T21:00:59.594Z,0.40
2023-04-26T21:03:27.138Z,0.50
2023-04-26T21:05:54.675Z,0.60
2023-04-26T21:08:22.642Z,0.40
2023-04-26T21:10:49.806Z,0.60
2023-04-26T21:13:16.982Z,0.40
2023-04-26T21:15:47.426Z,0.50
2023-04-26T21:18:14.613Z,0.40
2023-04-26T21:20:41.795Z,0.40
2023-04-26T21:23:09.180Z,0.40
2023-04-26T21:25:36.963Z,0.40
2023-04-26T21:28:04.086Z,0.40
2023-04-26T21:30:31.250Z,0.60
2023-04-26T21:32:58.483Z,0.50
2023-04-26T21:35:25.809Z,0.50
2023-04-26T21:37:55.280Z,0.53
2023-04-26T21:40:22.350Z,0.50
2023-04-26T21:43:04.078Z,0.50
2023-04-26T21:45:31.921Z,0.40
2023-04-26T21:47:59.031Z,0.43
2023-04-26T21:50:26.176Z,0.50
2023-04-26T21:52:53.838Z,0.60
2023-04-26T21:55:20.947Z,0.47
2023-04-26T21:57:48.106Z,0.50
2023-04-26T22:00:16.914Z,0.43
2023-04-26T22:02:44.227Z,0.40
2023-04-26T22:05:11.527Z,0.50
2023-04-26T22:07:38.761Z,0.50
2023-04-26T22:10:06.428Z,0.53
2023-04-26T22:12:33.556Z,0.70
2023-04-26T22:15:00.992Z,0.50
2023-04-26T22:17:28.094Z,0.53
2023-04-26T22:19:55.746Z,0.53
2023-04-26T22:22:25.990Z,0.60
2023-04-26T22:24:53.088Z,1.00
2023-04-26T22:27:20.230Z,0.53
2023-04-26T22:29:47.347Z,0.50
2023-04-26T22:32:14.471Z,0.43
2023-04-26T22:34:43.665Z,0.60
2023-04-26T22:37:20.804Z,0.50
2023-04-26T22:39:49.480Z,0.60
2023-04-26T22:42:16.671Z,0.47
2023-04-26T22:44:43.777Z,0.60
2023-04-26T22:47:10.912Z,0.60
2023-04-26T22:49:38.030Z,0.70
2023-04-26T22:52:11.724Z,0.50
2023-04-26T22:54:44.396Z,0.53
2023-04-26T22:57:11.577Z,0.50
2023-04-26T22:59:38.747Z,0.60
2023-04-26T23:02:05.948Z,0.53
2023-04-26T23:04:33.114Z,0.40
2023-04-26T23:07:00.428Z,0.60
2023-04-26T23:09:27.606Z,0.60
2023-04-26T23:11:54.660Z,0.57
2023-04-26T23:14:21.752Z,0.53
2023-04-26T23:16:49.023Z,0.60
2023-04-26T23:19:16.465Z,0.50
2023-04-26T23:21:43.593Z,0.70
2023-04-26T23:24:10.775Z,0.53
2023-04-26T23:26:37.838Z,0.60
2023-04-26T23:29:07.596Z,0.43
2023-04-26T23:31:34.782Z,0.53
2023-04-26T23:34:01.974Z,0.50
2023-04-26T23:36:29.118Z,0.40
2023-04-26T23:38:56.470Z,0.87
2023-04-26T23:41:23.582Z,0.60
2023-04-26T23:43:50.681Z,0.60
2023-04-26T23:46:17.888Z,0.60
2023-04-26T23:48:45.076Z,0.67
2023-04-26T23:51:12.254Z,0.67
2023-04-26T23:53:39.844Z,0.60
2023-04-26T23:56:07.877Z,0.50
2023-04-26T23:58:34.995Z,0.60
